sensor_id;sensor_type;location;lat;lon;timestamp;pressure;altitude;pressure_sealevel;temperature;humidity
62710;BME280;48770;51.624;5.886;2023-08-20T00:01:05;101924.38;;;27.28;48.53
62710;BME280;48770;51.624;5.886;2023-08-20T00:03:31;101927.16;;;27.28;48.08
62710;BME280;48770;51.624;5.886;2023-08-20T00:05:56;101919.94;;;27.27;48.57
62710;BME280;48770;51.624;5.886;2023-08-20T00:08:22;101922.75;;;27.27;48.24
62710;BME280;48770;51.624;5.886;2023-08-20T00:10:47;101914.31;;;27.27;48.27
62710;BME280;48770;51.624;5.886;2023-08-20T00:13:13;101921.94;;;27.27;48.18
62710;BME280;48770;51.624;5.886;2023-08-20T00:15:38;101925.91;;;27.26;48.37
62710;BME280;48770;51.624;5.886;2023-08-20T00:18:04;101914.25;;;27.24;48.01
62710;BME280;48770;51.624;5.886;2023-08-20T00:20:30;101924.28;;;27.25;48.33
62710;BME280;48770;51.624;5.886;2023-08-20T00:22:55;101919.88;;;27.24;48.29
62710;BME280;48770;51.624;5.886;2023-08-20T00:25:21;101923.84;;;27.23;48.20
62710;BME280;48770;51.624;5.886;2023-08-20T00:27:46;101919.78;;;27.20;48.06
62710;BME280;48770;51.624;5.886;2023-08-20T00:30:13;101925.41;;;27.20;47.78
62710;BME280;48770;51.624;5.886;2023-08-20T00:32:39;101933.84;;;27.20;47.84
62710;BME280;48770;51.624;5.886;2023-08-20T00:35:05;101929.41;;;27.19;47.92
62710;BME280;48770;51.624;5.886;2023-08-20T00:37:32;101926.97;;;27.18;48.04
62710;BME280;48770;51.624;5.886;2023-08-20T00:39:57;101931.78;;;27.17;47.53
62710;BME280;48770;51.624;5.886;2023-08-20T00:42:24;101932.59;;;27.18;47.88
62710;BME280;48770;51.624;5.886;2023-08-20T00:44:51;101928.16;;;27.17;47.69
62710;BME280;48770;51.624;5.886;2023-08-20T00:47:18;101934.94;;;27.16;47.60
62710;BME280;48770;51.624;5.886;2023-08-20T00:49:43;101935.75;;;27.16;47.62
62710;BME280;48770;51.624;5.886;2023-08-20T00:52:09;101934.50;;;27.14;47.54
62710;BME280;48770;51.624;5.886;2023-08-20T00:54:36;101932.50;;;27.14;47.85
62710;BME280;48770;51.624;5.886;2023-08-20T00:57:03;101944.94;;;27.13;47.78
62710;BME280;48770;51.624;5.886;2023-08-20T00:59:30;101944.50;;;27.11;47.80
62710;BME280;48770;51.624;5.886;2023-08-20T01:01:57;101944.50;;;27.11;47.43
62710;BME280;48770;51.624;5.886;2023-08-20T01:04:22;101955.72;;;27.11;47.79
62710;BME280;48770;51.624;5.886;2023-08-20T01:06:53;101955.28;;;27.09;47.41
62710;BME280;48770;51.624;5.886;2023-08-20T01:12:36;101953.56;;;27.04;47.54
62710;BME280;48770;51.624;5.886;2023-08-20T01:15:01;101957.16;;;27.05;47.23
62710;BME280;48770;51.624;5.886;2023-08-20T01:17:27;101979.63;;;27.05;47.69
62710;BME280;48770;51.624;5.886;2023-08-20T01:19:52;101968.41;;;27.05;47.37
62710;BME280;48770;51.624;5.886;2023-08-20T01:27:58;101987.16;;;27.01;47.15
62710;BME280;48770;51.624;5.886;2023-08-20T01:30:27;101989.16;;;27.00;47.22
62710;BME280;48770;51.624;5.886;2023-08-20T01:32:53;102000.00;;;27.02;47.49
62710;BME280;48770;51.624;5.886;2023-08-20T01:35:18;101993.59;;;27.01;47.53
62710;BME280;48770;51.624;5.886;2023-08-20T01:37:44;101997.59;;;27.00;47.45
62710;BME280;48770;51.624;5.886;2023-08-20T01:40:10;102010.81;;;27.00;47.40
62710;BME280;48770;51.624;5.886;2023-08-20T01:42:40;102010.81;;;27.00;47.19
62710;BME280;48770;51.624;5.886;2023-08-20T01:45:06;102007.19;;;26.99;47.42
62710;BME280;48770;51.624;5.886;2023-08-20T01:47:32;102004.38;;;26.99;47.36
62710;BME280;48770;51.624;5.886;2023-08-20T01:49:57;102007.53;;;26.98;47.51
62710;BME280;48770;51.624;5.886;2023-08-20T01:52:23;102007.53;;;26.98;47.65
62710;BME280;48770;51.624;5.886;2023-08-20T01:54:49;101995.84;;;26.96;47.60
62710;BME280;48770;51.624;5.886;2023-08-20T01:57:14;102001.09;;;26.97;47.44
62710;BME280;48770;51.624;5.886;2023-08-20T01:59:40;101996.66;;;26.96;47.51
62710;BME280;48770;51.624;5.886;2023-08-20T02:02:05;102001.47;;;26.96;47.43
62710;BME280;48770;51.624;5.886;2023-08-20T02:04:31;102002.66;;;26.95;47.74
62710;BME280;48770;51.624;5.886;2023-08-20T02:06:56;102008.25;;;26.95;47.63
62710;BME280;48770;51.624;5.886;2023-08-20T02:09:22;102008.25;;;26.95;47.34
62710;BME280;48770;51.624;5.886;2023-08-20T02:11:47;102011.06;;;26.95;47.70
62710;BME280;48770;51.624;5.886;2023-08-20T02:14:12;102007.81;;;26.93;47.76
62710;BME280;48770;51.624;5.886;2023-08-20T02:16:38;102009.81;;;26.92;47.84
62710;BME280;48770;51.624;5.886;2023-08-20T02:19:03;102003.38;;;26.92;47.89
62710;BME280;48770;51.624;5.886;2023-08-20T02:21:30;102005.00;;;26.93;47.83
62710;BME280;48770;51.624;5.886;2023-08-20T02:23:56;102009.81;;;26.92;47.81
62710;BME280;48770;51.624;5.886;2023-08-20T02:26:21;102018.59;;;26.91;48.06
62710;BME280;48770;51.624;5.886;2023-08-20T02:28:46;102017.78;;;26.90;48.02
62710;BME280;48770;51.624;5.886;2023-08-20T02:31:12;102024.56;;;26.89;47.89
62710;BME280;48770;51.624;5.886;2023-08-20T02:33:37;102022.59;;;26.90;48.01
62710;BME280;48770;51.624;5.886;2023-08-20T02:36:03;102023.75;;;26.89;47.97
62710;BME280;48770;51.624;5.886;2023-08-20T02:38:29;102018.16;;;26.89;48.22
62710;BME280;48770;51.624;5.886;2023-08-20T02:40:55;102014.16;;;26.90;48.13
62710;BME280;48770;51.624;5.886;2023-08-20T02:43:20;102013.72;;;26.88;48.17
62710;BME280;48770;51.624;5.886;2023-08-20T02:45:45;102016.53;;;26.88;48.39
62710;BME280;48770;51.624;5.886;2023-08-20T02:48:11;102009.28;;;26.87;48.08
62710;BME280;48770;51.624;5.886;2023-08-20T02:50:37;102012.09;;;26.87;48.18
62710;BME280;48770;51.624;5.886;2023-08-20T02:53:03;102009.28;;;26.87;48.29
62710;BME280;48770;51.624;5.886;2023-08-20T02:55:29;102008.09;;;26.88;48.23
62710;BME280;48770;51.624;5.886;2023-08-20T02:57:55;101996.44;;;26.86;47.89
62710;BME280;48770;51.624;5.886;2023-08-20T03:00:20;101996.44;;;26.86;48.15
62710;BME280;48770;51.624;5.886;2023-08-20T03:02:45;101999.25;;;26.86;48.15
62710;BME280;48770;51.624;5.886;2023-08-20T03:05:10;101992.38;;;26.83;48.21
62710;BME280;48770;51.624;5.886;2023-08-20T03:07:36;101994.81;;;26.85;48.35
62710;BME280;48770;51.624;5.886;2023-08-20T03:10:01;101989.19;;;26.85;48.19
62710;BME280;48770;51.624;5.886;2023-08-20T03:12:28;101979.16;;;26.84;48.35
62710;BME280;48770;51.624;5.886;2023-08-20T03:14:53;101979.97;;;26.84;48.39
62710;BME280;48770;51.624;5.886;2023-08-20T03:17:18;101971.91;;;26.83;48.42
62710;BME280;48770;51.624;5.886;2023-08-20T03:20:00;101981.03;;;26.80;48.17
62710;BME280;48770;51.624;5.886;2023-08-20T03:22:26;101991.94;;;26.81;48.12
62710;BME280;48770;51.624;5.886;2023-08-20T03:24:52;101991.13;;;26.81;48.25
62710;BME280;48770;51.624;5.886;2023-08-20T03:27:18;101990.28;;;26.80;48.32
62710;BME280;48770;51.624;5.886;2023-08-20T03:29:44;102002.34;;;26.81;47.83
62710;BME280;48770;51.624;5.886;2023-08-20T03:32:10;101986.66;;;26.80;47.83
62710;BME280;48770;51.624;5.886;2023-08-20T03:34:35;101996.25;;;26.79;47.95
62710;BME280;48770;51.624;5.886;2023-08-20T03:37:01;101993.44;;;26.79;47.96
62710;BME280;48770;51.624;5.886;2023-08-20T03:39:26;101994.25;;;26.79;48.14
62710;BME280;48770;51.624;5.886;2023-08-20T03:41:52;101995.44;;;26.78;48.20
62710;BME280;48770;51.624;5.886;2023-08-20T03:44:18;101991.00;;;26.77;48.15
62710;BME280;48770;51.624;5.886;2023-08-20T03:46:43;101993.38;;;26.75;48.25
62710;BME280;48770;51.624;5.886;2023-08-20T03:49:08;101985.75;;;26.76;47.98
62710;BME280;48770;51.624;5.886;2023-08-20T03:51:34;101982.94;;;26.76;47.72
62710;BME280;48770;51.624;5.886;2023-08-20T03:53:59;101992.56;;;26.74;47.92
62710;BME280;48770;51.624;5.886;2023-08-20T03:56:24;101995.72;;;26.73;47.71
62710;BME280;48770;51.624;5.886;2023-08-20T03:58:50;101998.53;;;26.73;47.65
62710;BME280;48770;51.624;5.886;2023-08-20T04:01:15;102004.13;;;26.73;47.56
62710;BME280;48770;51.624;5.886;2023-08-20T04:03:40;101998.91;;;26.71;47.87
62710;BME280;48770;51.624;5.886;2023-08-20T04:06:06;102010.13;;;26.71;48.05
62710;BME280;48770;51.624;5.886;2023-08-20T04:08:32;102002.88;;;26.70;47.83
62710;BME280;48770;51.624;5.886;2023-08-20T04:10:57;102000.44;;;26.69;47.81
62710;BME280;48770;51.624;5.886;2023-08-20T04:13:23;101999.63;;;26.68;47.47
62710;BME280;48770;51.624;5.886;2023-08-20T04:15:48;102010.03;;;26.68;47.38
62710;BME280;48770;51.624;5.886;2023-08-20T04:18:13;102002.81;;;26.67;47.35
62710;BME280;48770;51.624;5.886;2023-08-20T04:20:39;102009.22;;;26.67;47.34
62710;BME280;48770;51.624;5.886;2023-08-20T04:23:04;102002.00;;;26.66;47.39
62710;BME280;48770;51.624;5.886;2023-08-20T04:25:29;102000.38;;;26.65;47.28
62710;BME280;48770;51.624;5.886;2023-08-20T04:27:55;102001.53;;;26.64;47.18
62710;BME280;48770;51.624;5.886;2023-08-20T04:30:20;102006.72;;;26.62;47.11
62710;BME280;48770;51.624;5.886;2023-08-20T04:32:45;102006.72;;;26.62;47.29
62710;BME280;48770;51.624;5.886;2023-08-20T04:35:11;102008.69;;;26.62;46.96
62710;BME280;48770;51.624;5.886;2023-08-20T04:37:36;102013.06;;;26.59;47.06
62710;BME280;48770;51.624;5.886;2023-08-20T04:40:02;102014.69;;;26.60;47.10
62710;BME280;48770;51.624;5.886;2023-08-20T04:42:31;102020.28;;;26.60;47.19
62710;BME280;48770;51.624;5.886;2023-08-20T04:44:56;102024.28;;;26.59;46.90
62710;BME280;48770;51.624;5.886;2023-08-20T04:47:21;102019.84;;;26.58;46.82
62710;BME280;48770;51.624;5.886;2023-08-20T04:49:47;102025.81;;;26.57;46.61
62710;BME280;48770;51.624;5.886;2023-08-20T04:52:12;102018.56;;;26.56;46.96
62710;BME280;48770;51.624;5.886;2023-08-20T04:54:37;102018.56;;;26.56;46.63
62710;BME280;48770;51.624;5.886;2023-08-20T04:57:02;102016.94;;;26.55;46.65
62710;BME280;48770;51.624;5.886;2023-08-20T04:59:28;102014.47;;;26.53;46.68
62710;BME280;48770;51.624;5.886;2023-08-20T05:01:53;102020.91;;;26.54;46.58
62710;BME280;48770;51.624;5.886;2023-08-20T05:04:19;102024.06;;;26.52;46.70
62710;BME280;48770;51.624;5.886;2023-08-20T05:06:44;102032.84;;;26.51;46.35
62710;BME280;48770;51.624;5.886;2023-08-20T05:09:10;102026.44;;;26.50;46.29
62710;BME280;48770;51.624;5.886;2023-08-20T05:11:35;102027.59;;;26.49;46.13
62710;BME280;48770;51.624;5.886;2023-08-20T05:14:01;102033.22;;;26.49;46.58
62710;BME280;48770;51.624;5.886;2023-08-20T05:16:26;102028.78;;;26.48;46.53
62710;BME280;48770;51.624;5.886;2023-08-20T05:18:51;102031.97;;;26.47;46.55
62710;BME280;48770;51.624;5.886;2023-08-20T05:21:17;102036.75;;;26.46;46.30
62710;BME280;48770;51.624;5.886;2023-08-20T05:23:42;102036.75;;;26.46;46.54
62710;BME280;48770;51.624;5.886;2023-08-20T05:26:07;102039.91;;;26.45;46.49
62710;BME280;48770;51.624;5.886;2023-08-20T05:28:33;102036.31;;;26.44;46.78
62710;BME280;48770;51.624;5.886;2023-08-20T05:30:59;102040.72;;;26.45;46.62
62710;BME280;48770;51.624;5.886;2023-08-20T05:33:24;102036.31;;;26.44;46.67
62710;BME280;48770;51.624;5.886;2023-08-20T05:35:50;102034.69;;;26.43;46.55
62710;BME280;48770;51.624;5.886;2023-08-20T05:38:16;102039.09;;;26.44;46.86
62710;BME280;48770;51.624;5.886;2023-08-20T05:40:42;102044.72;;;26.44;46.71
62710;BME280;48770;51.624;5.886;2023-08-20T05:43:07;102043.09;;;26.43;46.90
62710;BME280;48770;51.624;5.886;2023-08-20T05:45:33;102045.91;;;26.43;46.66
62710;BME280;48770;51.624;5.886;2023-08-20T05:47:58;102047.06;;;26.42;46.93
62710;BME280;48770;51.624;5.886;2023-08-20T05:50:24;102049.88;;;26.42;47.25
62710;BME280;48770;51.624;5.886;2023-08-20T05:52:49;102047.06;;;26.42;47.06
62710;BME280;48770;51.624;5.886;2023-08-20T05:55:15;102044.28;;;26.42;46.92
62710;BME280;48770;51.624;5.886;2023-08-20T05:57:41;102052.69;;;26.42;47.12
62710;BME280;48770;51.624;5.886;2023-08-20T06:00:08;102047.44;;;26.40;47.04
62710;BME280;48770;51.624;5.886;2023-08-20T06:02:34;102051.88;;;26.41;47.29
62710;BME280;48770;51.624;5.886;2023-08-20T06:04:59;102059.09;;;26.42;47.48
62710;BME280;48770;51.624;5.886;2023-08-20T06:07:24;102061.09;;;26.42;47.55
62710;BME280;48770;51.624;5.886;2023-08-20T06:09:50;102063.91;;;26.42;47.60
62710;BME280;48770;51.624;5.886;2023-08-20T06:12:16;102056.31;;;26.42;47.56
62710;BME280;48770;51.624;5.886;2023-08-20T06:14:41;102061.09;;;26.42;47.61
62710;BME280;48770;51.624;5.886;2023-08-20T06:17:07;102056.31;;;26.42;48.04
62710;BME280;48770;51.624;5.886;2023-08-20T06:19:33;102062.72;;;26.43;48.11
62710;BME280;48770;51.624;5.886;2023-08-20T06:21:59;102061.53;;;26.44;47.99
62710;BME280;48770;51.624;5.886;2023-08-20T06:24:24;102071.13;;;26.43;47.89
62710;BME280;48770;51.624;5.886;2023-08-20T06:26:49;102069.16;;;26.43;47.99
62710;BME280;48770;51.624;5.886;2023-08-20T06:29:15;102068.34;;;26.43;48.30
62710;BME280;48770;51.624;5.886;2023-08-20T06:31:40;102065.53;;;26.43;48.22
62710;BME280;48770;51.624;5.886;2023-08-20T06:34:06;102068.34;;;26.43;48.12
62710;BME280;48770;51.624;5.886;2023-08-20T06:36:31;102060.72;;;26.43;48.27
62710;BME280;48770;51.624;5.886;2023-08-20T06:38:56;102067.16;;;26.44;48.30
62710;BME280;48770;51.624;5.886;2023-08-20T06:41:23;102063.19;;;26.45;48.04
62710;BME280;48770;51.624;5.886;2023-08-20T06:43:48;102064.34;;;26.44;48.32
62710;BME280;48770;51.624;5.886;2023-08-20T06:46:13;102064.34;;;26.44;48.41
62710;BME280;48770;51.624;5.886;2023-08-20T06:48:38;102067.97;;;26.45;48.42
62710;BME280;48770;51.624;5.886;2023-08-20T06:51:10;102074.41;;;26.45;48.17
62710;BME280;48770;51.624;5.886;2023-08-20T06:53:35;102078.00;;;26.46;48.15
62710;BME280;48770;51.624;5.886;2023-08-20T06:56:01;102075.22;;;26.46;48.00
62710;BME280;48770;51.624;5.886;2023-08-20T06:58:26;102083.63;;;26.46;47.88
62710;BME280;48770;51.624;5.886;2023-08-20T07:00:51;102083.25;;;26.47;48.52
62710;BME280;48770;51.624;5.886;2023-08-20T07:03:16;102077.66;;;26.47;48.39
62710;BME280;48770;51.624;5.886;2023-08-20T07:05:42;102084.88;;;26.48;48.25
62710;BME280;48770;51.624;5.886;2023-08-20T07:08:08;102078.47;;;26.48;48.29
62710;BME280;48770;51.624;5.886;2023-08-20T07:10:33;102080.09;;;26.49;48.02
62710;BME280;48770;51.624;5.886;2023-08-20T07:12:58;102085.69;;;26.49;48.00
62710;BME280;48770;51.624;5.886;2023-08-20T07:15:23;102084.88;;;26.48;47.84
62710;BME280;48770;51.624;5.886;2023-08-20T07:17:49;102086.50;;;26.49;47.77
62710;BME280;48770;51.624;5.886;2023-08-20T07:20:14;102080.09;;;26.49;47.80
62710;BME280;48770;51.624;5.886;2023-08-20T07:22:39;102084.88;;;26.48;47.76
62710;BME280;48770;51.624;5.886;2023-08-20T07:25:05;102086.50;;;26.49;47.34
62710;BME280;48770;51.624;5.886;2023-08-20T07:27:30;102084.53;;;26.50;47.01
62710;BME280;48770;51.624;5.886;2023-08-20T07:29:55;102079.72;;;26.50;47.02
62710;BME280;48770;51.624;5.886;2023-08-20T07:32:21;102078.53;;;26.51;47.06
62710;BME280;48770;51.624;5.886;2023-08-20T07:34:46;102082.53;;;26.50;46.95
62710;BME280;48770;51.624;5.886;2023-08-20T07:37:11;102072.94;;;26.51;46.86
62710;BME280;48770;51.624;5.886;2023-08-20T07:39:37;102072.94;;;26.51;46.69
62710;BME280;48770;51.624;5.886;2023-08-20T07:42:02;102076.56;;;26.52;46.92
62710;BME280;48770;51.624;5.886;2023-08-20T07:44:28;102081.00;;;26.53;46.34
62710;BME280;48770;51.624;5.886;2023-08-20T07:46:53;102078.19;;;26.53;46.38
62710;BME280;48770;51.624;5.886;2023-08-20T07:49:18;102086.22;;;26.54;45.88
62710;BME280;48770;51.624;5.886;2023-08-20T07:51:44;102079.34;;;26.52;46.02
62710;BME280;48770;51.624;5.886;2023-08-20T07:54:09;102081.81;;;26.53;45.80
62710;BME280;48770;51.624;5.886;2023-08-20T07:56:34;102076.19;;;26.53;45.69
62710;BME280;48770;51.624;5.886;2023-08-20T07:59:00;102074.56;;;26.52;45.83
62710;BME280;48770;51.624;5.886;2023-08-20T08:01:25;102078.19;;;26.53;45.95
62710;BME280;48770;51.624;5.886;2023-08-20T08:03:50;102087.09;;;26.55;45.86
62710;BME280;48770;51.624;5.886;2023-08-20T08:06:16;102085.91;;;26.56;45.55
62710;BME280;48770;51.624;5.886;2023-08-20T08:08:43;102089.53;;;26.56;45.57
62710;BME280;48770;51.624;5.886;2023-08-20T08:11:09;102089.53;;;26.56;45.45
62710;BME280;48770;51.624;5.886;2023-08-20T08:13:35;102093.13;;;26.57;45.74
62710;BME280;48770;51.624;5.886;2023-08-20T08:16:00;102097.13;;;26.56;45.55
62710;BME280;48770;51.624;5.886;2023-08-20T08:18:25;102102.38;;;26.57;45.37
62710;BME280;48770;51.624;5.886;2023-08-20T08:20:50;102098.75;;;26.57;45.25
62710;BME280;48770;51.624;5.886;2023-08-20T08:23:16;102095.94;;;26.57;45.36
62710;BME280;48770;51.624;5.886;2023-08-20T08:25:41;102096.75;;;26.57;45.38
62710;BME280;48770;51.624;5.886;2023-08-20T08:28:06;102110.78;;;26.57;45.12
62710;BME280;48770;51.624;5.886;2023-08-20T08:30:32;102106.00;;;26.58;45.46
62710;BME280;48770;51.624;5.886;2023-08-20T08:32:58;102110.41;;;26.59;45.29
62710;BME280;48770;51.624;5.886;2023-08-20T08:35:23;102121.28;;;26.60;45.39
62710;BME280;48770;51.624;5.886;2023-08-20T08:37:49;102110.06;;;26.60;45.58
62710;BME280;48770;51.624;5.886;2023-08-20T08:40:14;102116.50;;;26.61;46.46
62710;BME280;48770;51.624;5.886;2023-08-20T08:42:40;102114.50;;;26.61;47.45
62710;BME280;48770;51.624;5.886;2023-08-20T08:45:07;102129.78;;;26.64;47.74
62710;BME280;48770;51.624;5.886;2023-08-20T08:47:33;102130.59;;;26.64;47.57
62710;BME280;48770;51.624;5.886;2023-08-20T08:49:59;102124.19;;;26.64;47.51
62710;BME280;48770;51.624;5.886;2023-08-20T08:52:25;102123.00;;;26.65;47.75
62710;BME280;48770;51.624;5.886;2023-08-20T08:54:51;102119.00;;;26.66;47.60
62710;BME280;48770;51.624;5.886;2023-08-20T08:57:17;102115.41;;;26.65;47.09
62710;BME280;48770;51.624;5.886;2023-08-20T08:59:42;102117.03;;;26.66;47.50
62710;BME280;48770;51.624;5.886;2023-08-20T09:02:10;102112.22;;;26.67;47.10
62710;BME280;48770;51.624;5.886;2023-08-20T09:04:42;102122.28;;;26.68;46.85
62710;BME280;48770;51.624;5.886;2023-08-20T09:07:12;102125.44;;;26.66;46.98
62710;BME280;48770;51.624;5.886;2023-08-20T09:09:41;102120.66;;;26.67;47.17
62710;BME280;48770;51.624;5.886;2023-08-20T09:12:18;102119.81;;;26.66;47.14
62710;BME280;48770;51.624;5.886;2023-08-20T09:14:49;102130.69;;;26.68;47.04
62710;BME280;48770;51.624;5.886;2023-08-20T09:17:15;102122.28;;;26.68;47.06
62710;BME280;48770;51.624;5.886;2023-08-20T09:19:42;102125.06;;;26.68;46.77
62710;BME280;48770;51.624;5.886;2023-08-20T09:22:08;102128.69;;;26.68;46.99
62710;BME280;48770;51.624;5.886;2023-08-20T09:24:39;102120.28;;;26.68;47.07
62710;BME280;48770;51.624;5.886;2023-08-20T09:27:07;102123.09;;;26.68;47.22
62710;BME280;48770;51.624;5.886;2023-08-20T09:29:33;102126.34;;;26.70;47.03
62710;BME280;48770;51.624;5.886;2023-08-20T09:32:13;102123.16;;;26.72;47.20
62710;BME280;48770;51.624;5.886;2023-08-20T09:34:39;102123.53;;;26.70;47.32
62710;BME280;48770;51.624;5.886;2023-08-20T09:37:08;102124.81;;;26.73;47.44
62710;BME280;48770;51.624;5.886;2023-08-20T09:39:33;102118.38;;;26.72;47.19
62710;BME280;48770;51.624;5.886;2023-08-20T09:41:59;102127.97;;;26.71;46.74
62710;BME280;48770;51.624;5.886;2023-08-20T09:44:26;102126.44;;;26.74;46.64
62710;BME280;48770;51.624;5.886;2023-08-20T09:46:56;102120.81;;;26.74;46.70
62710;BME280;48770;51.624;5.886;2023-08-20T09:49:24;102122.00;;;26.73;46.37
62710;BME280;48770;51.624;5.886;2023-08-20T09:51:53;102120.00;;;26.73;46.25
62710;BME280;48770;51.624;5.886;2023-08-20T09:57:13;102117.19;;;26.73;46.29
62710;BME280;48770;51.624;5.886;2023-08-20T09:59:41;102115.19;;;26.74;46.22
62710;BME280;48770;51.624;5.886;2023-08-20T10:02:08;102123.25;;;26.76;46.12
62710;BME280;48770;51.624;5.886;2023-08-20T10:04:37;102128.88;;;26.76;46.52
62710;BME280;48770;51.624;5.886;2023-08-20T10:07:02;102123.25;;;26.76;46.51
62710;BME280;48770;51.624;5.886;2023-08-20T10:09:29;102124.88;;;26.77;46.32
62710;BME280;48770;51.624;5.886;2023-08-20T10:11:54;102123.25;;;26.76;46.30
62710;BME280;48770;51.624;5.886;2023-08-20T10:14:19;102122.06;;;26.77;45.90
62710;BME280;48770;51.624;5.886;2023-08-20T10:16:45;102120.91;;;26.78;45.71
62710;BME280;48770;51.624;5.886;2023-08-20T10:19:10;102126.50;;;26.78;45.25
62710;BME280;48770;51.624;5.886;2023-08-20T10:21:43;102124.88;;;26.77;45.03
62710;BME280;48770;51.624;5.886;2023-08-20T10:24:09;102117.66;;;26.76;44.86
62710;BME280;48770;51.624;5.886;2023-08-20T10:26:34;102124.88;;;26.77;44.38
62710;BME280;48770;51.624;5.886;2023-08-20T10:29:36;102122.81;;;26.73;44.11
62710;BME280;48770;51.624;5.886;2023-08-20T10:32:13;102122.44;;;26.75;44.05
62710;BME280;48770;51.624;5.886;2023-08-20T10:34:43;102126.88;;;26.76;44.10
62710;BME280;48770;51.624;5.886;2023-08-20T10:37:14;102123.63;;;26.74;44.48
62710;BME280;48770;51.624;5.886;2023-08-20T10:39:40;102128.88;;;26.76;44.33
62710;BME280;48770;51.624;5.886;2023-08-20T10:45:07;102120.81;;;26.74;43.66
62710;BME280;48770;51.624;5.886;2023-08-20T10:47:45;102121.63;;;26.74;43.47
62710;BME280;48770;51.624;5.886;2023-08-20T10:50:11;102118.81;;;26.74;43.65
62710;BME280;48770;51.624;5.886;2023-08-20T10:52:41;102122.06;;;26.77;43.44
62710;BME280;48770;51.624;5.886;2023-08-20T10:55:07;102125.69;;;26.77;43.39
62710;BME280;48770;51.624;5.886;2023-08-20T10:57:35;102121.72;;;26.78;42.69
62710;BME280;48770;51.624;5.886;2023-08-20T11:00:03;102128.13;;;26.79;42.98
62710;BME280;48770;51.624;5.886;2023-08-20T11:02:35;102130.13;;;26.78;43.59
62710;BME280;48770;51.624;5.886;2023-08-20T11:05:02;102128.94;;;26.79;43.76
62710;BME280;48770;51.624;5.886;2023-08-20T11:07:28;102133.75;;;26.79;43.95
62710;BME280;48770;51.624;5.886;2023-08-20T11:09:56;102129.75;;;26.80;44.42
62710;BME280;48770;51.624;5.886;2023-08-20T11:12:22;102131.44;;;26.81;44.69
62710;BME280;48770;51.624;5.886;2023-08-20T11:14:47;102122.16;;;26.80;44.65
62710;BME280;48770;51.624;5.886;2023-08-20T11:17:13;102130.59;;;26.80;44.68
62710;BME280;48770;51.624;5.886;2023-08-20T11:19:38;102126.97;;;26.80;44.84
62710;BME280;48770;51.624;5.886;2023-08-20T11:22:04;102114.59;;;26.81;44.99
62710;BME280;48770;51.624;5.886;2023-08-20T11:24:29;102123.81;;;26.81;45.50
62710;BME280;48770;51.624;5.886;2023-08-20T11:26:55;102127.44;;;26.82;45.13
62710;BME280;48770;51.624;5.886;2023-08-20T11:29:20;102129.06;;;26.83;45.37
62710;BME280;48770;51.624;5.886;2023-08-20T11:31:49;102127.06;;;26.83;45.28
62710;BME280;48770;51.624;5.886;2023-08-20T11:34:15;102116.66;;;26.84;45.68
62710;BME280;48770;51.624;5.886;2023-08-20T11:36:40;102125.09;;;26.84;45.47
62710;BME280;48770;51.624;5.886;2023-08-20T11:39:09;102121.91;;;26.85;45.45
62710;BME280;48770;51.624;5.886;2023-08-20T11:41:39;102120.72;;;26.86;45.59
62710;BME280;48770;51.624;5.886;2023-08-20T11:44:05;102120.38;;;26.88;45.83
62710;BME280;48770;51.624;5.886;2023-08-20T11:46:30;102115.94;;;26.87;45.89
62710;BME280;48770;51.624;5.886;2023-08-20T11:49:07;102117.94;;;26.86;45.82
62710;BME280;48770;51.624;5.886;2023-08-20T11:51:39;102122.00;;;26.89;46.11
62710;BME280;48770;51.624;5.886;2023-08-20T11:54:07;102110.78;;;26.89;46.80
62710;BME280;48770;51.624;5.886;2023-08-20T11:56:33;102116.03;;;26.90;46.67
62710;BME280;48770;51.624;5.886;2023-08-20T11:58:59;102109.22;;;26.91;46.66
62710;BME280;48770;51.624;5.886;2023-08-20T12:01:24;102108.84;;;26.93;46.75
62710;BME280;48770;51.624;5.886;2023-08-20T12:03:50;102101.25;;;26.93;46.94
62710;BME280;48770;51.624;5.886;2023-08-20T12:06:20;102095.63;;;26.93;47.13
62710;BME280;48770;51.624;5.886;2023-08-20T12:08:45;102096.91;;;26.96;47.42
62710;BME280;48770;51.624;5.886;2023-08-20T12:11:12;102094.53;;;26.98;47.38
62710;BME280;48770;51.624;5.886;2023-08-20T12:13:37;102088.59;;;26.99;47.31
62710;BME280;48770;51.624;5.886;2023-08-20T12:16:03;102089.41;;;27.00;47.53
62710;BME280;48770;51.624;5.886;2023-08-20T12:18:28;102087.03;;;27.02;47.73
62710;BME280;48770;51.624;5.886;2023-08-20T12:20:54;102077.44;;;27.03;47.89
62710;BME280;48770;51.624;5.886;2023-08-20T12:23:21;102077.88;;;27.05;48.00
62710;BME280;48770;51.624;5.886;2023-08-20T12:25:50;102074.38;;;27.08;48.19
62710;BME280;48770;51.624;5.886;2023-08-20T12:28:16;102068.75;;;27.08;47.83
62710;BME280;48770;51.624;5.886;2023-08-20T12:30:42;102069.22;;;27.10;48.00
62710;BME280;48770;51.624;5.886;2023-08-20T12:33:08;102062.41;;;27.11;47.96
62710;BME280;48770;51.624;5.886;2023-08-20T12:35:33;102064.84;;;27.13;48.32
62710;BME280;48770;51.624;5.886;2023-08-20T12:37:58;102061.31;;;27.16;48.26
62710;BME280;48770;51.624;5.886;2023-08-20T12:40:24;102064.56;;;27.18;48.24
62710;BME280;48770;51.624;5.886;2023-08-20T12:42:49;102071.44;;;27.20;48.04
62710;BME280;48770;51.624;5.886;2023-08-20T12:45:14;102063.44;;;27.22;48.23
62710;BME280;48770;51.624;5.886;2023-08-20T12:47:40;102061.09;;;27.24;48.08
62710;BME280;48770;51.624;5.886;2023-08-20T12:50:06;102064.34;;;27.26;48.12
62710;BME280;48770;51.624;5.886;2023-08-20T12:52:32;102067.22;;;27.30;47.73
62710;BME280;48770;51.624;5.886;2023-08-20T12:54:58;102064.03;;;27.31;47.85
62710;BME280;48770;51.624;5.886;2023-08-20T12:57:23;102063.34;;;27.34;47.56
62710;BME280;48770;51.624;5.886;2023-08-20T12:59:48;102063.78;;;27.37;47.66